CheckWX is a tool to help pilots better visualize weather data.  It is not intended as a substitute for an official pre-flight weather briefing.

05:20:50 UTC

EPPO METAR
Poznań-Ławica Airport
Poznań, Poland
Current

21 mins ago

EPPO 200500Z 27010KT 9999 SCT017 OVC041 05/03 Q1016 R10/29//95
Observed
Feb-20 @ 05:00 UTC
Wind
  • 270° at 10 KTS
Visibility
10,000+ meters
Flight Rules
VFR
Cloud Levels
  • Scattered at 1,700' AGL
  • Overcast at 4,100' AGL
Temperature
C / 41°F
Dewpoint
C / 37°F
Humidity
87%
Altimeter
30" Hg
Pressure
1015.92 hPa
Previous

51 mins ago

EPPO 200430Z 27011KT 9999 SCT018 05/03 Q1016 R10/29//95
Observed
Feb-20 @ 04:30 UTC
Wind
  • 270° at 11 KTS
Visibility
10,000+ meters
Flight Rules
VFR
Cloud Levels
  • Scattered at 1,800' AGL
Temperature
C / 41°F
Dewpoint
C / 37°F
Humidity
87%
Altimeter
30" Hg
Pressure
1015.92 hPa
Previous

1 hour ago

EPPO 200400Z 26010KT 9999 SCT018 05/03 Q1016 R10/29//95
Observed
Feb-20 @ 04:00 UTC
Wind
  • 260° at 10 KTS
Visibility
10,000+ meters
Flight Rules
VFR
Cloud Levels
  • Scattered at 1,800' AGL
Temperature
C / 41°F
Dewpoint
C / 37°F
Humidity
87%
Altimeter
30" Hg
Pressure
1015.92 hPa